Time;durP1;ratioP1;P1;durP2;ratioP2;P2;SDS_P1;SDS_P2;PMS_P1;PMS_P2;Temp;Humidity;BMP_temperature;BMP_pressure;BME280_temperature;BME280_humidity;BME280_pressure;Samples;Min_cycle;Max_cycle;Signal;HPM_P1;HPM_P2
2023/02/18 00:00:30;;;;;;;17.77;17.27;;;21.10;58.50;;;;;;4990634;28;20443;-49
2023/02/18 00:02:56;;;;;;;18.30;17.80;;;21.10;58.50;;;;;;4990572;28;20483;-46
2023/02/18 00:05:23;;;;;;;17.70;17.20;;;21.00;58.40;;;;;;4990791;28;20535;-48
2023/02/18 00:07:50;;;;;;;17.73;17.23;;;21.00;58.40;;;;;;5009684;28;20520;-46
2023/02/18 00:10:17;;;;;;;17.50;17.00;;;21.00;58.50;;;;;;5009966;28;21023;-52
2023/02/18 00:12:45;;;;;;;17.40;16.90;;;21.00;58.60;;;;;;5009954;28;20802;-49
2023/02/18 00:15:13;;;;;;;17.80;17.20;;;21.00;58.60;;;;;;5009711;28;20951;-47
2023/02/18 00:17:40;;;;;;;17.20;16.70;;;21.00;59.20;;;;;;4990695;28;20664;-46
2023/02/18 00:20:08;;;;;;;17.10;16.60;;;21.00;58.70;;;;;;4990416;28;20538;-47
2023/02/18 00:22:35;;;;;;;18.80;18.20;;;21.00;58.70;;;;;;4990359;28;20455;-46
2023/02/18 00:25:01;;;;;;;18.40;17.90;;;21.00;58.80;;;;;;4990432;28;20881;-53
2023/02/18 00:27:28;;;;;;;18.87;18.27;;;21.00;58.80;;;;;;5006251;28;20482;-46
2023/02/18 00:29:55;;;;;;;18.80;18.20;;;20.90;58.80;;;;;;5008679;28;20534;-47
2023/02/18 00:32:23;;;;;;;17.00;16.50;;;20.90;58.80;;;;;;5010223;28;20450;-54
2023/02/18 00:34:50;;;;;;;24.00;23.30;;;20.90;59.40;;;;;;5010978;28;20545;-55
2023/02/18 00:37:17;;;;;;;23.77;23.07;;;20.90;58.90;;;;;;4995943;28;20535;-58
2023/02/18 00:39:44;;;;;;;23.90;23.20;;;20.90;58.90;;;;;;4991287;28;20601;-52
2023/02/18 00:42:11;;;;;;;22.70;22.00;;;20.90;58.90;;;;;;4991545;28;20525;-58
2023/02/18 00:44:37;;;;;;;23.23;22.53;;;20.90;58.90;;;;;;4993945;28;20451;-56
2023/02/18 00:47:04;;;;;;;24.20;23.50;;;20.90;59.00;;;;;;5000329;28;20459;-56
2023/02/18 00:49:32;;;;;;;23.20;22.40;;;20.90;59.00;;;;;;4991234;28;20812;-54
2023/02/18 00:51:59;;;;;;;17.80;17.30;;;20.90;59.10;;;;;;4991004;28;20523;-57
2023/02/18 00:54:26;;;;;;;18.87;18.27;;;20.90;59.10;;;;;;4994888;28;20809;-56
2023/02/18 00:56:53;;;;;;;18.40;17.80;;;20.90;59.20;;;;;;5010462;28;20557;-56
2023/02/18 00:59:20;;;;;;;17.93;17.43;;;20.90;59.20;;;;;;5010520;28;20438;-58
2023/02/18 01:01:47;;;;;;;18.83;18.23;;;20.90;59.20;;;;;;5010018;28;20441;-57
2023/02/18 01:04:14;;;;;;;18.30;17.80;;;20.80;59.10;;;;;;5007324;28;20824;-59
2023/02/18 01:06:42;;;;;;;17.80;17.30;;;20.80;59.10;;;;;;4989313;28;20550;-56
2023/02/18 01:09:09;;;;;;;18.23;17.73;;;20.90;59.20;;;;;;4989766;28;20530;-54
2023/02/18 01:11:36;;;;;;;19.13;18.53;;;20.80;59.30;;;;;;4989962;28;21010;-57
2023/02/18 01:14:03;;;;;;;18.43;17.83;;;20.90;59.40;;;;;;5004240;28;20540;-56
2023/02/18 01:16:30;;;;;;;18.73;18.13;;;20.80;59.90;;;;;;5009429;28;20502;-56
2023/02/18 01:18:57;;;;;;;18.53;17.93;;;20.80;59.40;;;;;;5009419;28;20532;-50
2023/02/18 01:21:24;;;;;;;18.47;17.87;;;20.80;59.40;;;;;;5009007;28;20891;-50
2023/02/18 01:23:52;;;;;;;17.50;17.00;;;20.80;59.50;;;;;;4996241;28;20886;-48
2023/02/18 01:26:19;;;;;;;19.73;19.13;;;20.80;60.10;;;;;;4989324;28;20471;-49
2023/02/18 01:28:46;;;;;;;19.63;19.03;;;20.80;59.50;;;;;;4989508;28;20446;-48
2023/02/18 01:31:14;;;;;;;18.67;18.07;;;20.80;59.50;;;;;;4989379;28;20858;-49
2023/02/18 01:33:40;;;;;;;18.27;17.67;;;20.80;59.60;;;;;;5000327;28;20452;-48
2023/02/18 01:36:08;;;;;;;19.20;18.60;;;20.80;59.60;;;;;;5008497;28;20985;-53
2023/02/18 01:38:35;;;;;;;18.60;18.00;;;20.80;59.60;;;;;;5009021;28;20499;-52
2023/02/18 01:41:04;;;;;;;17.80;17.30;;;20.80;59.70;;;;;;5009408;28;20446;-49
2023/02/18 01:43:32;;;;;;;17.80;17.20;;;20.80;59.70;;;;;;5002614;28;20792;-48
2023/02/18 01:46:14;;;;;;;17.67;17.17;;;20.80;59.70;;;;;;4992715;28;20473;-49
2023/02/18 01:48:44;;;;;;;18.27;17.60;;;20.80;59.70;;;;;;4992878;28;20963;-48
2023/02/18 01:51:13;;;;;;;18.57;17.97;;;20.80;59.80;;;;;;4992577;28;20494;-49
2023/02/18 01:53:46;;;;;;;17.60;17.10;;;20.80;59.80;;;;;;5002922;28;20450;-52
2023/02/18 01:56:22;;;;;;;18.50;17.80;;;20.80;59.80;;;;;;5012021;28;20466;-49
2023/02/18 01:58:50;;;;;;;17.97;17.47;;;20.80;59.90;;;;;;5012096;28;20454;-49
2023/02/18 02:01:17;;;;;;;17.90;17.30;;;20.80;59.80;;;;;;5012229;28;20442;-48
2023/02/18 02:03:44;;;;;;;18.53;17.93;;;20.80;59.90;;;;;;5001096;28;20455;-54
2023/02/18 02:06:16;;;;;;;18.10;17.40;;;20.80;60.00;;;;;;4992275;28;20473;-54
2023/02/18 02:08:45;;;;;;;17.63;17.13;;;20.70;59.90;;;;;;4992388;28;20451;-54
2023/02/18 02:11:24;;;;;;;18.07;17.53;;;20.80;60.00;;;;;;4992217;28;21023;-53
2023/02/18 02:14:24;;;;;;;18.80;18.20;;;20.80;60.00;;;;;;5003539;28;20857;-53
2023/02/18 02:16:58;;;;;;;18.33;17.73;;;20.80;60.10;;;;;;5000235;28;20482;-55
2023/02/18 02:19:59;;;;;;;19.37;18.77;;;20.70;60.00;;;;;;5011836;28;20456;-52
2023/02/18 02:23:05;;;;;;;17.80;17.30;;;20.80;60.10;;;;;;4998375;28;20445;-51
2023/02/18 02:25:54;;;;;;;17.10;16.60;;;20.80;60.10;;;;;;4992090;28;20443;-54
2023/02/18 02:28:59;;;;;;;17.97;17.47;;;20.70;60.10;;;;;;4992116;28;20453;-52
2023/02/18 02:32:06;;;;;;;17.23;16.73;;;20.70;60.20;;;;;;4993152;28;20486;-54
2023/02/18 02:34:47;;;;;;;17.00;16.50;;;20.70;60.30;;;;;;4966816;28;20545;-53
2023/02/18 02:37:24;;;;;;;18.00;17.50;;;20.70;60.40;;;;;;4991761;28;20477;-52
2023/02/18 02:40:01;;;;;;;18.30;17.80;;;20.70;60.50;;;;;;4992131;28;20496;-58
2023/02/18 02:42:40;;;;;;;17.73;17.23;;;20.70;60.50;;;;;;4993680;28;20530;-58
2023/02/18 02:45:16;;;;;;;18.13;17.57;;;20.70;60.50;;;;;;4993645;28;21003;-53
2023/02/18 02:47:49;;;;;;;17.70;17.20;;;20.70;60.50;;;;;;4994013;28;20474;-57
2023/02/18 02:50:26;;;;;;;18.30;17.70;;;20.70;60.50;;;;;;4993824;28;20458;-56
2023/02/18 02:52:59;;;;;;;18.70;18.13;;;20.70;60.50;;;;;;4993376;28;20449;-56
2023/02/18 02:55:26;;;;;;;17.80;17.30;;;20.70;60.50;;;;;;4997763;28;20829;-58
2023/02/18 02:57:54;;;;;;;16.93;16.43;;;20.70;60.50;;;;;;5004344;28;20490;-58
2023/02/18 03:00:24;;;;;;;18.43;17.83;;;20.70;60.50;;;;;;5004644;28;20443;-57
2023/02/18 03:03:16;;;;;;;19.30;18.70;;;20.70;60.60;;;;;;5003839;28;20494;-59
2023/02/18 03:05:57;;;;;;;17.63;17.13;;;20.70;60.50;;;;;;5003326;28;20525;-56
2023/02/18 03:08:34;;;;;;;18.70;18.10;;;20.70;60.60;;;;;;5004092;28;20498;-56
2023/02/18 03:11:05;;;;;;;19.10;18.47;;;20.70;60.70;;;;;;4994767;28;20493;-56
2023/02/18 03:13:54;;;;;;;17.40;16.90;;;20.70;60.70;;;;;;4992861;28;20806;-53
2023/02/18 03:16:27;;;;;;;17.80;17.20;;;20.70;60.70;;;;;;4992400;28;20471;-53
2023/02/18 03:19:01;;;;;;;17.57;17.07;;;20.70;60.70;;;;;;4991121;28;20946;-47
2023/02/18 03:21:35;;;;;;;18.07;17.57;;;20.70;60.70;;;;;;4994776;28;20446;-55
2023/02/18 03:24:06;;;;;;;18.10;17.60;;;20.70;60.80;;;;;;4991656;28;20443;-54
2023/02/18 03:26:35;;;;;;;18.30;17.70;;;20.70;60.90;;;;;;4991243;28;20477;-50
2023/02/18 03:29:06;;;;;;;19.40;18.80;;;20.70;60.80;;;;;;4991288;28;20447;-53
2023/02/18 03:31:37;;;;;;;17.93;17.43;;;20.70;60.80;;;;;;4991329;28;20483;-50
2023/02/18 03:34:09;;;;;;;18.80;18.23;;;20.70;60.90;;;;;;4991666;28;20827;-47
2023/02/18 03:36:38;;;;;;;19.17;18.57;;;20.70;60.90;;;;;;4971236;28;20552;-52
2023/02/18 03:39:09;;;;;;;18.50;17.80;;;20.70;60.90;;;;;;4971005;28;20985;-52
2023/02/18 03:41:36;;;;;;;17.97;17.47;;;20.70;60.80;;;;;;4971302;28;20811;-52
2023/02/18 03:44:06;;;;;;;17.40;16.90;;;20.70;60.80;;;;;;4971619;28;20526;-52
2023/02/18 03:46:35;;;;;;;18.07;17.57;;;20.70;60.90;;;;;;4971287;28;20551;-56
2023/02/18 03:49:02;;;;;;;18.07;17.57;;;20.70;60.90;;;;;;4971146;28;20447;-50
2023/02/18 03:51:29;;;;;;;17.83;17.33;;;20.70;60.90;;;;;;4971096;28;20488;-52
2023/02/18 03:53:57;;;;;;;17.97;17.47;;;20.70;60.90;;;;;;4971186;28;20448;-53
2023/02/18 03:56:24;;;;;;;17.90;17.30;;;20.70;61.00;;;;;;4971026;28;20499;-48
2023/02/18 03:58:51;;;;;;;18.23;17.73;;;20.70;61.00;;;;;;4971083;28;21010;-51
2023/02/18 04:01:18;;;;;;;18.43;17.83;;;20.70;61.10;;;;;;4971505;28;20448;-49
2023/02/18 04:03:45;;;;;;;18.77;18.17;;;20.70;61.10;;;;;;4971430;28;20816;-46
2023/02/18 04:06:12;;;;;;;18.70;18.20;;;20.70;61.10;;;;;;4970068;28;20471;-49
2023/02/18 04:08:39;;;;;;;19.57;18.83;;;20.70;61.10;;;;;;4971013;28;20450;-50
2023/02/18 04:11:07;;;;;;;18.13;17.53;;;20.70;61.10;;;;;;4971182;28;20443;-53
2023/02/18 04:13:33;;;;;;;18.17;17.60;;;20.70;61.00;;;;;;4971120;28;20528;-49
2023/02/18 04:16:00;;;;;;;18.50;17.90;;;20.80;61.10;;;;;;4970884;28;20466;-52
2023/02/18 04:18:27;;;;;;;19.17;18.57;;;20.80;61.00;;;;;;4970982;28;20448;-46
2023/02/18 04:20:54;;;;;;;18.83;18.23;;;20.80;60.80;;;;;;4971124;28;20958;-51
2023/02/18 04:23:21;;;;;;;18.10;17.60;;;20.80;60.80;;;;;;4971174;28;20454;-50
2023/02/18 04:25:48;;;;;;;17.63;16.90;;;20.90;60.80;;;;;;4970722;28;20534;-48
2023/02/18 04:28:16;;;;;;;18.50;17.90;;;20.90;60.80;;;;;;4970851;28;20448;-50
2023/02/18 04:30:44;;;;;;;19.03;18.43;;;20.80;60.60;;;;;;4970897;28;20458;-49
2023/02/18 04:33:11;;;;;;;19.37;18.77;;;20.80;60.60;;;;;;4971034;28;21010;-47
2023/02/18 04:35:40;;;;;;;18.93;18.40;;;20.90;60.70;;;;;;4982847;28;20455;-46
2023/02/18 04:38:07;;;;;;;18.00;17.40;;;20.90;60.60;;;;;;4989850;28;20854;-48
2023/02/18 04:40:34;;;;;;;17.03;16.53;;;20.90;60.60;;;;;;4990047;28;20483;-54
2023/02/18 04:43:01;;;;;;;17.53;17.03;;;20.90;60.60;;;;;;4990202;28;20537;-50
2023/02/18 04:45:30;;;;;;;17.57;17.07;;;20.90;60.50;;;;;;4990177;28;20457;-50
2023/02/18 04:47:56;;;;;;;17.20;16.70;;;20.90;60.50;;;;;;4989500;28;21049;-50
2023/02/18 04:50:23;;;;;;;17.80;17.30;;;20.90;60.50;;;;;;4990108;28;20542;-48
2023/02/18 04:52:50;;;;;;;17.80;17.20;;;20.90;60.50;;;;;;4989488;28;20581;-52
2023/02/18 04:55:17;;;;;;;17.97;17.40;;;20.90;60.50;;;;;;4989719;28;20447;-48
2023/02/18 04:57:45;;;;;;;18.70;18.20;;;20.90;60.40;;;;;;4989181;28;20467;-50
2023/02/18 05:00:16;;;;;;;19.13;18.63;;;21.00;60.60;;;;;;4989822;28;20453;-49
2023/02/18 05:02:45;;;;;;;20.27;19.67;;;21.00;60.50;;;;;;4989756;28;20477;-50
2023/02/18 05:05:12;;;;;;;20.00;19.40;;;21.00;60.50;;;;;;4989591;28;20449;-49
2023/02/18 05:07:41;;;;;;;19.30;18.70;;;21.00;60.40;;;;;;4989079;28;20498;-53
2023/02/18 05:10:09;;;;;;;19.53;18.93;;;21.00;60.30;;;;;;4989402;28;20922;-47
2023/02/18 05:12:36;;;;;;;18.30;17.70;;;21.00;60.30;;;;;;4990144;28;20854;-54
2023/02/18 05:15:03;;;;;;;18.90;18.33;;;21.10;60.60;;;;;;4990982;28;20447;-56
2023/02/18 05:17:30;;;;;;;20.37;19.77;;;21.00;61.40;;;;;;4988685;28;20553;-58
2023/02/18 05:19:58;;;;;;;19.50;18.90;;;20.90;62.30;;;;;;4989398;28;20537;-59
2023/02/18 05:22:25;;;;;;;20.30;19.70;;;20.70;63.00;;;;;;4989398;28;20545;-56
2023/02/18 05:24:52;;;;;;;20.13;19.47;;;20.40;63.90;;;;;;5000300;28;20446;-61
2023/02/18 05:27:19;;;;;;;20.27;19.67;;;20.30;65.00;;;;;;5008787;28;20469;-59
2023/02/18 05:29:46;;;;;;;18.93;18.43;;;20.30;65.70;;;;;;5008868;28;20952;-57
2023/02/18 05:32:12;;;;;;;19.73;19.10;;;20.10;66.90;;;;;;5008865;28;20580;-60
2023/02/18 05:34:39;;;;;;;20.37;19.67;;;19.90;66.70;;;;;;4999324;28;20553;-60
2023/02/18 05:37:09;;;;;;;19.57;18.93;;;19.80;67.80;;;;;;4989161;28;21070;-60
2023/02/18 05:39:36;;;;;;;20.67;20.00;;;19.70;68.30;;;;;;4989344;28;20451;-56
2023/02/18 05:42:03;;;;;;;19.73;19.03;;;19.70;68.70;;;;;;4990617;28;20447;-62
2023/02/18 05:44:30;;;;;;;19.10;18.50;;;19.60;68.80;;;;;;5008968;28;20533;-62
2023/02/18 05:47:01;;;;;;;20.00;19.40;;;19.50;69.50;;;;;;5008939;28;20519;-56
2023/02/18 05:49:29;;;;;;;19.93;19.33;;;19.40;70.10;;;;;;5009154;28;20828;-56
2023/02/18 05:51:56;;;;;;;20.80;20.07;;;19.20;71.10;;;;;;5008249;28;20847;-58
2023/02/18 05:54:25;;;;;;;20.77;20.07;;;19.10;72.00;;;;;;5004495;28;20944;-49
2023/02/18 05:56:52;;;;;;;20.43;19.73;;;19.10;72.70;;;;;;5008475;28;20466;-49
2023/02/18 05:59:19;;;;;;;20.80;20.10;;;19.00;73.20;;;;;;5008701;28;20541;-49
2023/02/18 06:01:46;;;;;;;19.67;19.07;;;19.00;73.60;;;;;;5008686;28;20442;-49
2023/02/18 06:04:14;;;;;;;19.73;19.10;;;19.00;74.70;;;;;;5008287;28;20452;-50
2023/02/18 06:06:41;;;;;;;19.87;19.17;;;18.90;74.60;;;;;;5008009;28;20560;-54
2023/02/18 06:09:08;;;;;;;19.60;18.90;;;18.90;74.90;;;;;;5008636;28;20452;-52
2023/02/18 06:11:37;;;;;;;19.80;19.13;;;18.90;75.30;;;;;;5008484;28;20446;-53
2023/02/18 06:14:05;;;;;;;19.53;18.83;;;19.00;74.70;;;;;;5008102;28;20445;-49
2023/02/18 06:16:32;;;;;;;19.40;18.80;;;19.20;73.00;;;;;;5008343;28;20977;-49
2023/02/18 06:18:59;;;;;;;20.43;19.63;;;19.30;71.60;;;;;;5008473;28;20450;-51
2023/02/18 06:21:26;;;;;;;19.47;18.50;;;19.40;72.10;;;;;;5008363;28;20448;-56
2023/02/18 06:23:53;;;;;;;19.70;18.80;;;19.50;72.60;;;;;;5008068;28;20557;-56
2023/02/18 06:26:19;;;;;;;18.70;17.90;;;19.50;73.30;;;;;;5008016;28;20556;-57
2023/02/18 06:28:48;;;;;;;22.23;20.43;;;19.60;78.20;;;;;;5009830;28;20452;-58
2023/02/18 06:31:14;;;;;;;22.47;20.00;;;19.60;82.60;;;;;;5011950;28;20811;-57
2023/02/18 06:33:41;;;;;;;21.87;20.77;;;19.70;84.70;;;;;;5011436;28;20489;-58
2023/02/18 06:36:11;;;;;;;23.07;21.73;;;19.80;80.80;;;;;;5011164;28;20569;-50
2023/02/18 06:38:39;;;;;;;18.97;18.17;;;19.80;78.20;;;;;;5011634;28;20475;-50
2023/02/18 06:41:06;;;;;;;20.47;19.53;;;19.90;78.20;;;;;;5011293;28;20655;-50
2023/02/18 06:43:33;;;;;;;21.93;20.40;;;20.00;77.80;;;;;;4998718;28;20453;-49
2023/02/18 06:46:01;;;;;;;22.57;21.47;;;20.10;78.50;;;;;;5010573;28;20470;-50
2023/02/18 06:48:28;;;;;;;21.00;19.97;;;20.20;79.00;;;;;;5011237;28;20929;-56
2023/02/18 06:50:57;;;;;;;23.63;22.50;;;20.20;79.00;;;;;;5011417;28;20442;-57
2023/02/18 06:53:24;;;;;;;25.40;24.17;;;20.20;81.60;;;;;;5012016;28;20478;-61
2023/02/18 06:55:50;;;;;;;24.10;22.63;;;20.40;81.60;;;;;;5012163;28;20534;-55
2023/02/18 06:58:18;;;;;;;20.77;19.63;;;20.40;80.10;;;;;;5012309;28;20879;-57
2023/02/18 07:00:46;;;;;;;22.87;22.17;;;20.50;78.70;;;;;;5009457;28;20500;-57
2023/02/18 07:03:15;;;;;;;25.80;24.60;;;20.60;77.50;;;;;;4992769;28;20497;-58
2023/02/18 07:05:42;;;;;;;24.27;23.17;;;20.70;76.60;;;;;;4992568;28;20447;-56
2023/02/18 07:08:09;;;;;;;24.63;23.73;;;20.70;75.80;;;;;;4992680;28;20447;-52
2023/02/18 07:10:37;;;;;;;26.00;24.40;;;20.80;76.70;;;;;;4994251;28;20527;-57
2023/02/18 07:13:04;;;;;;;23.40;22.27;;;20.80;76.60;;;;;;5012630;28;20484;-56
2023/02/18 07:15:31;;;;;;;24.57;23.50;;;20.90;75.70;;;;;;5011880;28;20546;-52
2023/02/18 07:17:57;;;;;;;24.30;23.50;;;21.00;74.50;;;;;;5011895;28;20561;-54
2023/02/18 07:20:27;;;;;;;24.73;23.73;;;21.00;73.20;;;;;;5012067;28;20576;-57
2023/02/18 07:22:54;;;;;;;24.10;23.23;;;21.10;72.60;;;;;;5011688;28;20960;-54
2023/02/18 07:25:22;;;;;;;23.03;22.13;;;21.10;72.00;;;;;;5011930;28;20446;-54
2023/02/18 07:27:48;;;;;;;23.00;21.90;;;21.20;71.60;;;;;;5010872;28;20471;-56
2023/02/18 07:30:16;;;;;;;22.80;22.10;;;21.20;71.20;;;;;;5011396;28;20441;-55
2023/02/18 07:32:43;;;;;;;21.97;21.00;;;21.20;70.60;;;;;;5010436;28;20486;-57
2023/02/18 07:35:13;;;;;;;22.77;21.87;;;21.30;70.30;;;;;;5010773;28;20461;-57
2023/02/18 07:37:43;;;;;;;22.97;21.90;;;21.30;69.80;;;;;;5010997;28;20466;-57
2023/02/18 07:40:13;;;;;;;23.40;22.23;;;21.40;70.20;;;;;;5010507;28;20453;-54
2023/02/18 07:42:40;;;;;;;22.63;21.83;;;21.40;70.10;;;;;;5009851;28;20517;-58
2023/02/18 07:45:08;;;;;;;23.53;22.63;;;21.40;69.80;;;;;;5010523;28;20553;-59
2023/02/18 07:47:35;;;;;;;23.60;22.80;;;21.40;69.40;;;;;;5010493;28;20472;-56
2023/02/18 07:50:02;;;;;;;22.73;21.93;;;21.50;69.20;;;;;;5010716;28;20452;-54
2023/02/18 07:52:28;;;;;;;21.37;20.67;;;21.40;68.70;;;;;;5010272;28;20576;-57
2023/02/18 07:54:57;;;;;;;21.83;21.03;;;21.50;68.60;;;;;;5010663;28;20545;-59
2023/02/18 07:57:23;;;;;;;21.60;20.90;;;21.50;68.40;;;;;;5010421;28;20553;-57
2023/02/18 07:59:50;;;;;;;21.90;21.20;;;21.50;68.10;;;;;;5009997;28;20489;-54
2023/02/18 08:02:19;;;;;;;22.93;22.13;;;21.60;68.80;;;;;;5010320;28;20881;-52
2023/02/18 08:04:46;;;;;;;21.80;21.10;;;21.60;68.90;;;;;;5010253;28;20452;-55
2023/02/18 08:07:14;;;;;;;22.90;22.10;;;21.60;68.40;;;;;;5010033;28;20474;-56
2023/02/18 08:09:41;;;;;;;22.30;21.40;;;21.60;67.70;;;;;;5005697;28;20522;-54
2023/02/18 08:12:10;;;;;;;21.23;20.33;;;21.60;67.40;;;;;;4990552;28;20534;-53
2023/02/18 08:14:36;;;;;;;21.77;21.07;;;21.70;67.40;;;;;;4990616;28;20504;-50
2023/02/18 08:17:03;;;;;;;22.37;21.57;;;21.70;67.30;;;;;;4990213;28;20891;-50
2023/02/18 08:19:30;;;;;;;22.27;21.17;;;21.70;67.10;;;;;;4992567;28;20538;-51
2023/02/18 08:22:00;;;;;;;20.63;19.97;;;21.70;67.60;;;;;;5010726;28;20453;-50
2023/02/18 08:24:28;;;;;;;21.57;20.70;;;21.80;67.30;;;;;;5010605;28;20446;-54
2023/02/18 08:26:55;;;;;;;25.40;24.53;;;21.70;66.80;;;;;;5010529;28;20519;-57
2023/02/18 08:29:23;;;;;;;24.97;23.87;;;21.80;66.80;;;;;;5004418;28;20880;-58
2023/02/18 08:31:51;;;;;;;24.30;23.40;;;21.80;66.60;;;;;;4990856;28;20811;-56
2023/02/18 08:34:18;;;;;;;22.20;21.40;;;21.80;66.60;;;;;;4991040;28;20604;-53
2023/02/18 08:36:45;;;;;;;23.40;22.60;;;21.80;66.50;;;;;;4991179;28;21103;-58
2023/02/18 08:39:12;;;;;;;22.57;21.87;;;21.90;66.30;;;;;;4991599;28;20449;-58
2023/02/18 08:41:38;;;;;;;22.80;21.97;;;21.90;66.10;;;;;;4991011;28;20455;-59
2023/02/18 08:44:07;;;;;;;22.67;21.87;;;21.90;66.00;;;;;;4990718;28;20862;-50
2023/02/18 08:46:35;;;;;;;21.23;20.47;;;21.90;65.70;;;;;;4990439;28;20520;-51
2023/02/18 08:49:03;;;;;;;21.27;20.57;;;21.90;65.60;;;;;;4990658;28;20901;-52
2023/02/18 08:51:30;;;;;;;21.90;21.20;;;21.90;65.70;;;;;;4989617;28;20465;-49
2023/02/18 08:53:58;;;;;;;23.93;23.13;;;21.90;65.50;;;;;;4990597;28;20518;-55
2023/02/18 08:56:25;;;;;;;24.37;23.57;;;21.90;65.50;;;;;;4990048;28;20546;-56
2023/02/18 08:58:52;;;;;;;22.93;22.13;;;21.90;65.50;;;;;;4989892;28;20451;-57
2023/02/18 09:01:19;;;;;;;21.40;20.70;;;22.00;65.60;;;;;;4989559;28;20544;-52
2023/02/18 09:03:48;;;;;;;22.53;21.83;;;22.00;65.60;;;;;;4989424;28;20815;-52
2023/02/18 09:06:15;;;;;;;22.93;22.13;;;22.00;65.70;;;;;;4989324;28;20478;-52
2023/02/18 09:08:41;;;;;;;21.40;20.60;;;22.00;65.70;;;;;;4989851;28;20534;-52
2023/02/18 09:11:09;;;;;;;21.57;20.87;;;22.00;65.80;;;;;;4989493;28;20447;-50
2023/02/18 09:13:36;;;;;;;21.73;21.03;;;22.00;65.70;;;;;;4989523;28;20544;-55
2023/02/18 09:16:06;;;;;;;22.40;21.70;;;22.00;65.70;;;;;;4989396;28;20842;-54
2023/02/18 09:18:35;;;;;;;23.10;22.30;;;22.00;65.70;;;;;;4989961;28;20481;-52
2023/02/18 09:21:05;;;;;;;21.30;20.70;;;22.00;65.70;;;;;;4989747;28;20474;-52
2023/02/18 09:23:33;;;;;;;21.50;20.80;;;22.00;66.20;;;;;;4989952;28;20805;-49
2023/02/18 09:26:01;;;;;;;25.10;24.10;;;22.00;66.20;;;;;;4990223;28;20556;-52
2023/02/18 09:28:27;;;;;;;23.17;22.37;;;22.00;65.90;;;;;;4990227;28;20451;-60
2023/02/18 09:30:54;;;;;;;21.37;20.67;;;22.00;65.90;;;;;;4990663;28;20533;-51
2023/02/18 09:33:21;;;;;;;23.60;22.80;;;22.00;65.70;;;;;;4990134;28;21005;-52
2023/02/18 09:35:48;;;;;;;23.10;22.40;;;22.00;65.90;;;;;;4989896;28;20466;-57
2023/02/18 09:38:18;;;;;;;23.40;22.60;;;22.00;66.60;;;;;;4991105;28;20454;-51
2023/02/18 09:40:49;;;;;;;22.70;21.90;;;21.90;67.30;;;;;;4990211;28;20538;-49
2023/02/18 09:43:25;;;;;;;19.83;19.02;;;22.00;67.40;;;;;;4989862;28;20444;-54
2023/02/18 09:45:54;;;;;;;22.60;21.80;;;21.90;67.70;;;;;;4990060;28;20221;-49
2023/02/18 09:48:27;;;;;;;21.27;20.47;;;22.00;67.60;;;;;;4989853;28;20446;-57
2023/02/18 09:50:54;;;;;;;21.90;21.20;;;22.10;66.90;;;;;;4989574;28;20454;-49
2023/02/18 09:53:23;;;;;;;23.17;22.23;;;22.10;66.40;;;;;;4989898;28;20486;-50
2023/02/18 09:55:53;;;;;;;23.40;22.40;;;22.10;66.40;;;;;;4990230;28;20481;-50
2023/02/18 09:58:24;;;;;;;23.63;22.83;;;22.00;66.20;;;;;;4990570;28;20447;-49
2023/02/18 10:00:58;;;;;;;22.27;21.47;;;22.00;65.90;;;;;;4989394;28;20532;-55
2023/02/18 10:03:26;;;;;;;22.50;21.70;;;22.00;65.80;;;;;;4993192;28;20534;-52
2023/02/18 10:05:58;;;;;;;23.47;22.77;;;22.10;65.70;;;;;;4993652;28;20447;-54
2023/02/18 10:08:29;;;;;;;21.77;21.07;;;22.10;66.20;;;;;;4993733;28;20456;-47
2023/02/18 10:10:56;;;;;;;20.55;19.85;;;22.10;66.00;;;;;;4992645;28;20528;-49
2023/02/18 10:13:24;;;;;;;24.03;23.00;;;22.10;66.60;;;;;;4993749;28;20677;-48
2023/02/18 10:15:52;;;;;;;22.97;22.13;;;22.10;65.00;;;;;;4993181;28;20872;-50
2023/02/18 10:18:28;;;;;;;22.50;21.70;;;22.20;64.90;;;;;;4993234;28;20446;-47
2023/02/18 10:21:03;;;;;;;22.10;21.00;;;22.20;64.90;;;;;;4992295;28;20451;-58
2023/02/18 10:23:33;;;;;;;24.90;23.60;;;22.20;65.50;;;;;;4993528;28;20581;-55
2023/02/18 10:26:05;;;;;;;23.93;22.93;;;22.30;65.70;;;;;;4993678;28;20462;-57
2023/02/18 10:28:33;;;;;;;22.00;21.20;;;22.30;65.60;;;;;;4994260;28;20458;-55
2023/02/18 10:31:07;;;;;;;22.40;21.70;;;22.30;65.70;;;;;;4994249;28;20543;-58
2023/02/18 10:33:35;;;;;;;23.33;22.50;;;22.30;65.80;;;;;;4993729;28;20571;-56
2023/02/18 10:36:17;;;;;;;23.33;22.50;;;22.20;65.80;;;;;;4994630;28;20565;-56
2023/02/18 10:39:18;;;;;;;21.83;21.10;;;22.20;66.10;;;;;;4994626;28;20453;-53
2023/02/18 10:41:52;;;;;;;22.00;21.20;;;22.20;66.40;;;;;;4994561;28;20720;-52
2023/02/18 10:44:29;;;;;;;22.53;21.73;;;22.20;66.40;;;;;;5005463;28;21024;-52
2023/02/18 10:47:03;;;;;;;23.50;22.60;;;22.20;66.70;;;;;;5013026;28;20462;-56
2023/02/18 10:49:47;;;;;;;18.58;17.98;;;22.20;66.70;;;;;;5007329;28;20535;-55
2023/02/18 10:52:18;;;;;;;21.30;20.60;;;22.20;66.40;;;;;;4993141;28;20204;-52
2023/02/18 10:54:52;;;;;;;21.13;20.33;;;22.30;66.10;;;;;;4992930;28;20460;-53
2023/02/18 10:57:21;;;;;;;21.97;21.27;;;22.40;66.00;;;;;;4993446;28;20326;-53
2023/02/18 10:59:57;;;;;;;23.67;22.57;;;22.40;65.60;;;;;;4999682;28;20442;-48
2023/02/18 11:02:29;;;;;;;22.47;21.60;;;22.40;65.60;;;;;;5012687;28;20457;-54
2023/02/18 11:04:58;;;;;;;22.20;21.50;;;22.40;65.60;;;;;;5011578;28;20445;-52
2023/02/18 11:07:29;;;;;;;23.20;22.40;;;22.30;65.40;;;;;;5010943;28;20466;-51
2023/02/18 11:09:59;;;;;;;23.87;22.97;;;22.30;65.60;;;;;;5011106;28;20821;-49
2023/02/18 11:12:29;;;;;;;23.40;22.70;;;22.30;65.80;;;;;;4999436;28;20451;-46
2023/02/18 11:15:07;;;;;;;23.83;23.03;;;22.30;66.00;;;;;;4990927;28;20864;-49
2023/02/18 11:17:36;;;;;;;25.00;24.10;;;22.30;65.80;;;;;;4991441;28;20471;-51
2023/02/18 11:20:22;;;;;;;23.23;22.43;;;22.30;65.60;;;;;;4997265;28;20971;-52
2023/02/18 11:22:49;;;;;;;22.07;21.17;;;22.20;65.90;;;;;;5011499;28;20450;-52
2023/02/18 11:25:22;;;;;;;22.47;21.70;;;22.20;65.70;;;;;;5010998;28;20452;-52
2023/02/18 11:27:52;;;;;;;22.40;21.60;;;22.20;65.60;;;;;;5007580;28;20556;-52
2023/02/18 11:30:21;;;;;;;22.60;21.67;;;22.20;65.60;;;;;;5010730;28;20484;-55
2023/02/18 11:32:50;;;;;;;23.20;22.43;;;22.20;65.20;;;;;;5010622;28;20533;-53
2023/02/18 11:35:19;;;;;;;24.67;23.70;;;22.20;65.00;;;;;;5010254;28;20492;-50
2023/02/18 11:37:46;;;;;;;22.30;21.53;;;22.20;64.80;;;;;;5010290;28;20828;-55
2023/02/18 11:40:23;;;;;;;22.33;21.53;;;22.20;64.60;;;;;;5010571;28;20483;-57
2023/02/18 11:42:50;;;;;;;22.20;21.40;;;22.20;64.50;;;;;;5010581;28;20959;-55
2023/02/18 11:45:28;;;;;;;22.43;21.73;;;22.10;64.30;;;;;;5010085;28;20442;-58
2023/02/18 11:47:59;;;;;;;20.97;20.27;;;22.10;64.10;;;;;;5011052;28;20960;-58
2023/02/18 11:50:30;;;;;;;22.20;21.30;;;22.10;64.00;;;;;;5012157;28;20444;-59
2023/02/18 11:52:58;;;;;;;22.87;22.13;;;22.10;63.90;;;;;;5014086;28;20456;-59
2023/02/18 11:55:29;;;;;;;22.30;21.60;;;22.00;63.70;;;;;;5013947;28;20482;-58
2023/02/18 11:57:59;;;;;;;21.90;21.03;;;22.00;63.60;;;;;;5015742;28;20482;-57
2023/02/18 12:00:37;;;;;;;22.97;21.90;;;22.00;63.50;;;;;;5010338;28;20523;-58
2023/02/18 12:03:13;;;;;;;24.53;23.57;;;22.00;63.40;;;;;;5010162;28;20461;-58
2023/02/18 12:05:41;;;;;;;23.73;22.97;;;21.90;64.30;;;;;;5009978;28;20446;-58
2023/02/18 12:08:17;;;;;;;23.27;22.57;;;21.80;65.10;;;;;;5010059;28;20453;-59
2023/02/18 12:10:48;;;;;;;22.10;21.37;;;21.80;65.70;;;;;;4993762;28;20455;-58
2023/02/18 12:13:23;;;;;;;22.83;22.03;;;21.70;66.00;;;;;;4990589;28;20451;-56
2023/02/18 12:15:57;;;;;;;22.20;21.50;;;21.60;66.20;;;;;;4990288;28;20439;-58
2023/02/18 12:18:50;;;;;;;22.10;21.40;;;21.60;66.60;;;;;;4990657;28;20457;-57
2023/02/18 12:21:39;;;;;;;22.67;21.97;;;21.60;66.80;;;;;;5010386;28;20462;-61
2023/02/18 12:24:19;;;;;;;21.90;21.20;;;21.60;67.00;;;;;;4992747;28;20458;-58
2023/02/18 12:26:53;;;;;;;20.50;19.70;;;21.60;66.60;;;;;;4990866;28;20474;-59
2023/02/18 12:29:46;;;;;;;20.90;20.20;;;21.70;66.40;;;;;;4995371;28;20446;-56
2023/02/18 12:32:20;;;;;;;24.00;23.20;;;21.70;66.50;;;;;;5003407;28;20458;-58
2023/02/18 12:35:00;;;;;;;22.50;21.60;;;21.70;66.40;;;;;;5010822;28;20481;-59
2023/02/18 12:37:52;;;;;;;22.70;21.90;;;21.70;66.30;;;;;;5010845;28;20832;-56
2023/02/18 12:40:39;;;;;;;22.90;22.20;;;21.80;66.50;;;;;;5008881;28;20446;-56
2023/02/18 12:43:17;;;;;;;22.90;22.20;;;21.90;66.00;;;;;;5010526;28;20442;-55